Terminal Aerodrome Forecast
Issued by NWS

Home | Current Version | Previous Version | Text Only | Print | Product List | Glossary On
Versions: 1 2 3 4 5 6 7 8 9 10 11 12 13 14 15 16 17 18
454
FTUS43 KLSX 211430 AAA
TAFUIN
TAF AMD
KUIN 211430Z 2115/2212 27013G21KT P6SM SCT025 BKN035
      TEMPO 2115/2118 BKN025
     FM220200 28006KT P6SM SCT080
     FM220800 21004KT P6SM SKC=

USA.gov is the U.S. government's official web portal to all federal, state and local government web resources and services.